Time;durP1;ratioP1;P1;durP2;ratioP2;P2;SDS_P1;SDS_P2;PMS_P1;PMS_P2;Temp;Humidity;BMP_temperature;BMP_pressure;BME280_temperature;BME280_humidity;BME280_pressure;Samples;Min_cycle;Max_cycle;Signal;HPM_P1;HPM_P2
2022/01/20 00:00:32;;;;;;;48.05;7.47;;;;;;;4.26;87.47;101930.13;5029530;28;20040;-75
2022/01/20 00:03:03;;;;;;;43.78;8.00;;;;;;;4.31;88.87;101928.09;5001314;28;20056;-75
2022/01/20 00:08:30;;;;;;;56.78;6.95;;;;;;;4.02;88.77;101927.88;5040830;28;20409;-75
2022/01/20 00:25:46;;;;;;;47.65;6.07;;;;;;;3.91;89.31;101927.63;5034773;28;20053;-75
2022/01/20 00:27:50;;;;;;;57.28;6.65;;;;;;;4.00;89.50;101928.88;5033696;28;20467;-75
2022/01/20 00:30:55;;;;;;;40.10;5.47;;;;;;;3.95;89.25;101923.91;5000704;28;20084;-74
2022/01/20 00:38:36;;;;;;;62.83;6.03;;;;;;;4.00;89.34;101937.63;5088829;28;20145;-76
2022/01/20 00:41:07;;;;;;;38.47;5.50;;;;;;;3.94;88.69;101934.47;5089088;28;20493;-77
2022/01/20 00:43:34;;;;;;;50.58;6.50;;;;;;;4.15;87.70;101943.00;5087693;28;20036;-75
2022/01/20 00:46:01;;;;;;;48.97;6.82;;;;;;;4.25;87.06;101945.97;5069933;28;20045;-75
2022/01/20 00:48:27;;;;;;;67.45;6.78;;;;;;;4.13;86.79;101940.44;5069988;28;20127;-76
2022/01/20 00:50:54;;;;;;;42.60;6.63;;;;;;;3.97;87.37;101942.19;5070137;28;20041;-75
2022/01/20 00:53:21;;;;;;;52.75;6.43;;;;;;;4.06;87.54;101941.72;5052368;28;20040;-75
2022/01/20 00:55:47;;;;;;;51.28;6.53;;;;;;;3.91;87.60;101943.38;5069102;28;20045;-75
2022/01/20 00:58:14;;;;;;;39.42;5.78;;;;;;;3.95;87.54;101951.94;5068544;28;20029;-75
2022/01/20 01:00:42;;;;;;;47.38;6.63;;;;;;;3.98;87.13;101954.38;5068760;28;20447;-75
2022/01/20 01:03:09;;;;;;;48.25;6.45;;;;;;;3.76;87.31;101949.41;5068521;28;20564;-75
2022/01/20 01:05:42;;;;;;;45.38;5.68;;;;;;;3.92;87.53;101949.47;5066704;28;20059;-75
2022/01/20 01:08:09;;;;;;;48.15;7.07;;;;;;;3.87;87.14;101954.09;5083057;28;20083;-75
2022/01/20 01:10:38;;;;;;;40.70;7.15;;;;;;;3.75;87.97;101963.50;5071442;28;20054;-75
2022/01/20 01:13:10;;;;;;;40.03;6.80;;;;;;;3.72;88.31;101956.59;5088840;28;20040;-76
2022/01/20 01:15:42;;;;;;;35.78;6.57;;;;;;;3.73;87.52;101960.06;5088334;28;20040;-75
2022/01/20 01:23:38;;;;;;;43.63;8.77;;;;;;;3.62;87.32;101958.00;5086492;28;20396;-76
2022/01/20 01:26:13;;;;;;;47.15;9.05;;;;;;;3.67;87.68;101952.53;5088802;28;20052;-76
2022/01/20 01:28:41;;;;;;;41.20;9.35;;;;;;;3.67;87.81;101952.53;5088682;28;20044;-76
2022/01/20 01:31:30;;;;;;;39.78;7.43;;;;;;;3.64;87.79;101951.75;5090390;28;20101;-76
2022/01/20 01:33:58;;;;;;;43.80;6.90;;;;;;;3.78;87.54;101965.94;5087887;28;20041;-76
2022/01/20 01:36:28;;;;;;;59.75;7.35;;;;;;;3.80;87.53;101959.69;5073602;28;20064;-76
2022/01/20 01:38:55;;;;;;;41.17;6.82;;;;;;;3.68;88.68;101949.00;5052935;28;20049;-76
2022/01/20 01:41:32;;;;;;;35.50;5.47;;;;;;;3.78;87.57;101961.56;5068550;28;20044;-76
2022/01/20 01:44:04;;;;;;;45.80;6.32;;;;;;;3.80;87.57;101958.81;5102836;28;20049;-76
2022/01/20 01:46:30;;;;;;;49.35;5.90;;;;;;;3.77;87.15;101965.09;5067654;28;20049;-76
2022/01/20 01:48:57;;;;;;;33.55;4.88;;;;;;;3.83;87.49;101967.38;5068749;28;20044;-76
2022/01/20 01:51:25;;;;;;;39.25;4.97;;;;;;;3.92;87.23;101962.59;5052205;28;20047;-76
2022/01/20 01:53:52;;;;;;;35.75;5.25;;;;;;;3.85;87.58;101967.31;5052203;28;20413;-76
2022/01/20 01:56:21;;;;;;;42.33;7.05;;;;;;;3.88;87.11;101963.69;5069201;28;20040;-76
2022/01/20 01:58:48;;;;;;;32.85;4.75;;;;;;;3.85;87.96;101960.28;5069437;28;20102;-76
2022/01/20 02:01:17;;;;;;;36.50;4.60;;;;;;;3.80;87.79;101959.69;5068346;28;20072;-76
2022/01/20 02:03:56;;;;;;;44.67;4.75;;;;;;;3.84;87.00;101969.09;5069749;28;20052;-76
2022/01/20 02:06:51;;;;;;;37.85;5.15;;;;;;;4.09;86.53;101957.28;5066192;28;20072;-76
2022/01/20 02:17:47;;;;;;;38.92;5.28;;;;;;;4.06;86.21;101960.09;5068354;28;20110;-76
2022/01/20 02:18:50;;;;;;;29.08;4.72;;;;;;;3.98;86.61;101952.63;5074950;28;20051;-76
2022/01/20 02:20:32;;;;;;;32.67;4.63;;;;;;;4.06;86.81;101951.34;5064672;28;20409;-76
2022/01/20 02:23:01;;;;;;;35.60;4.38;;;;;;;4.05;85.38;101947.88;5047821;28;20055;-76
2022/01/20 02:25:34;;;;;;;37.38;4.63;;;;;;;4.03;85.71;101945.31;5072573;28;20044;-76
2022/01/20 02:28:05;;;;;;;36.78;4.40;;;;;;;4.01;85.62;101951.59;5080434;28;20048;-76
2022/01/20 02:30:34;;;;;;;32.63;4.22;;;;;;;4.08;85.60;101958.22;5068980;28;20535;-76
2022/01/20 02:33:06;;;;;;;24.45;4.60;;;;;;;4.08;85.71;101952.97;5066443;28;20037;-76
2022/01/20 02:35:38;;;;;;;32.58;5.07;;;;;;;4.07;85.33;101958.31;5054376;28;20055;-76
2022/01/20 02:38:18;;;;;;;40.13;6.35;;;;;;;4.08;85.66;101950.34;5054205;28;20455;-76
2022/01/20 02:46:05;;;;;;;30.60;3.97;;;;;;;3.84;85.75;101942.00;5055235;28;20053;-76
2022/01/20 02:48:33;;;;;;;32.53;4.32;;;;;;;3.87;86.09;101933.94;5055354;28;20132;-76
2022/01/20 02:51:01;;;;;;;25.13;3.38;;;;;;;3.76;85.87;101937.13;5055137;28;20516;-76
2022/01/20 02:53:28;;;;;;;26.17;3.80;;;;;;;3.69;86.37;101948.88;5054440;28;20037;-76
2022/01/20 02:55:54;;;;;;;26.88;3.63;;;;;;;3.87;85.69;101960.19;5054474;28;20132;-76
2022/01/20 02:58:21;;;;;;;30.92;3.92;;;;;;;3.93;85.38;101952.03;5055444;28;20041;-76
2022/01/20 03:00:48;;;;;;;29.77;4.13;;;;;;;3.86;84.96;101937.50;5054005;28;20531;-76
2022/01/20 03:03:16;;;;;;;32.05;3.90;;;;;;;3.89;85.68;101949.63;5053540;28;20037;-76
2022/01/20 03:05:43;;;;;;;24.40;3.55;;;;;;;3.87;86.61;101938.34;5053908;28;20087;-76
2022/01/20 03:08:11;;;;;;;23.98;3.72;;;;;;;3.94;85.07;101934.47;5054085;28;20084;-76
2022/01/20 03:10:38;;;;;;;25.58;3.97;;;;;;;3.96;84.88;101930.81;5053560;28;20037;-76
2022/01/20 03:13:06;;;;;;;30.48;3.78;;;;;;;3.96;85.06;101935.25;5037662;28;20044;-76
2022/01/20 03:15:35;;;;;;;29.92;3.47;;;;;;;3.99;85.11;101946.44;5053512;28;20051;-76
2022/01/20 03:18:03;;;;;;;28.00;3.63;;;;;;;3.90;84.76;101951.31;5054782;28;20549;-75
2022/01/20 03:20:32;;;;;;;33.50;4.97;;;;;;;3.84;85.88;101955.97;5053551;28;20041;-75
2022/01/20 03:23:00;;;;;;;18.55;2.85;;;;;;;3.90;84.95;101954.78;5033624;28;20099;-76
2022/01/20 03:25:27;;;;;;;25.27;3.28;;;;;;;4.01;85.40;101943.72;5033383;28;20099;-76
2022/01/20 03:27:56;;;;;;;20.63;3.30;;;;;;;4.03;83.70;101944.50;5034012;28;20049;-76
2022/01/20 03:30:24;;;;;;;24.63;3.80;;;;;;;3.99;84.06;101935.09;5034782;28;20096;-76
2022/01/20 03:32:52;;;;;;;25.80;3.88;;;;;;;3.93;84.48;101932.78;5082957;28;20044;-76
2022/01/20 03:35:19;;;;;;;33.90;3.67;;;;;;;4.01;84.41;101944.56;5051711;28;20472;-75
2022/01/20 03:38:00;;;;;;;25.77;4.13;;;;;;;3.80;84.45;101943.94;5022588;28;20053;-75
2022/01/20 03:40:27;;;;;;;24.90;2.90;;;;;;;3.76;84.59;101939.75;5054164;28;20045;-75
2022/01/20 03:42:54;;;;;;;28.67;2.95;;;;;;;3.83;85.26;101932.41;5036528;28;20048;-75
2022/01/20 03:45:25;;;;;;;22.02;4.18;;;;;;;3.89;84.61;101934.72;5035897;28;20128;-75
2022/01/20 03:47:55;;;;;;;28.20;3.40;;;;;;;3.79;84.85;101931.72;5052570;28;20076;-75
2022/01/20 03:53:09;;;;;;;27.45;3.22;;;;;;;3.71;84.91;101922.56;5034262;28;20042;-75
2022/01/20 03:55:37;;;;;;;21.65;3.60;;;;;;;3.76;85.01;101926.63;5048982;28;20080;-75
2022/01/20 03:58:08;;;;;;;19.35;3.08;;;;;;;3.87;84.62;101915.56;5052876;28;20056;-75
2022/01/20 04:00:40;;;;;;;25.43;3.17;;;;;;;3.60;85.58;101920.50;5052266;28;20126;-75
2022/01/20 04:03:19;;;;;;;26.58;2.85;;;;;;;3.77;85.27;101917.00;5052292;28;20504;-75
2022/01/20 04:08:35;;;;;;;29.67;3.80;;;;;;;3.82;85.01;101922.84;5090593;27;20746;-77
2022/01/20 04:11:07;;;;;;;24.00;2.85;;;;;;;3.67;85.78;101929.75;5085923;28;20079;-76
2022/01/20 04:13:36;;;;;;;27.17;3.88;;;;;;;3.81;85.96;101935.13;5072386;28;20431;-77
2022/01/20 04:16:16;;;;;;;24.98;3.20;;;;;;;3.69;85.76;101935.75;5083642;28;20044;-77
2022/01/20 04:18:52;;;;;;;25.35;3.08;;;;;;;3.78;86.30;101940.56;5088869;28;20049;-76
2022/01/20 04:21:21;;;;;;;25.83;3.30;;;;;;;3.72;86.52;101935.59;5089379;28;20071;-77
2022/01/20 04:23:48;;;;;;;19.33;3.03;;;;;;;3.75;86.31;101939.88;5122968;28;20044;-76
2022/01/20 04:26:15;;;;;;;24.60;2.70;;;;;;;3.72;85.66;101919.03;5088449;28;20075;-76
2022/01/20 04:28:42;;;;;;;12.15;2.50;;;;;;;3.64;86.91;101916.81;5055918;28;20554;-74
2022/01/20 04:31:10;;;;;;;17.05;2.72;;;;;;;3.70;87.12;101911.22;5087776;28;20040;-76
2022/01/20 04:33:37;;;;;;;27.05;3.67;;;;;;;3.62;86.23;101916.88;5072396;28;20427;-76
2022/01/20 04:36:06;;;;;;;24.38;3.40;;;;;;;3.56;87.30;101932.09;5088464;28;20131;-76
2022/01/20 04:38:33;;;;;;;23.55;3.58;;;;;;;3.53;86.53;101922.59;5089985;28;20128;-76
2022/01/20 04:41:00;;;;;;;23.20;3.60;;;;;;;3.57;87.70;101921.50;5088408;28;20056;-76
2022/01/20 04:43:28;;;;;;;23.48;3.30;;;;;;;3.60;87.16;101918.75;5090025;28;20090;-76
2022/01/20 04:46:04;;;;;;;30.20;3.85;;;;;;;3.58;86.42;101919.72;5089214;28;20135;-77
2022/01/20 04:57:24;;;;;;;28.33;3.88;;;;;;;3.66;86.11;101938.56;5073795;28;20139;-76
2022/01/20 04:59:40;;;;;;;20.85;3.75;;;;;;;3.70;85.89;101942.72;5089426;28;20509;-77
2022/01/20 05:02:07;;;;;;;23.85;4.82;;;;;;;3.62;86.63;101937.00;5089633;28;20086;-77
2022/01/20 05:04:46;;;;;;;25.10;3.65;;;;;;;3.73;86.19;101939.94;5086467;28;20393;-77
2022/01/20 05:07:30;;;;;;;22.83;3.08;;;;;;;3.88;85.61;101945.31;5088658;28;20149;-76
2022/01/20 05:09:57;;;;;;;24.98;3.15;;;;;;;3.77;86.09;101946.72;5088038;28;20048;-76
2022/01/20 05:12:37;;;;;;;18.90;3.55;;;;;;;3.70;85.63;101940.09;5087728;28;20075;-76
2022/01/20 05:15:04;;;;;;;20.02;3.42;;;;;;;3.67;86.30;101936.78;5088009;28;20070;-76
2022/01/20 05:17:35;;;;;;;21.45;4.35;;;;;;;3.55;86.30;101944.38;5087621;28;20518;-76
2022/01/20 05:20:02;;;;;;;32.67;4.40;;;;;;;3.62;86.58;101937.00;5073585;28;20154;-76
2022/01/20 05:22:29;;;;;;;20.92;3.97;;;;;;;3.49;87.26;101947.28;5074882;28;20044;-76
2022/01/20 05:24:58;;;;;;;26.80;3.28;;;;;;;3.68;86.53;101951.59;5054311;28;20045;-76
2022/01/20 05:27:25;;;;;;;23.55;3.80;;;;;;;3.53;86.35;101955.84;5054860;28;20044;-76
2022/01/20 05:29:52;;;;;;;18.40;3.28;;;;;;;3.51;87.48;101955.09;5067194;28;20037;-76
2022/01/20 05:32:19;;;;;;;21.45;3.78;;;;;;;3.40;87.78;101971.38;5105524;28;20082;-76
2022/01/20 05:34:46;;;;;;;25.73;3.78;;;;;;;3.58;87.94;101957.31;5075409;28;20068;-76
2022/01/20 05:37:13;;;;;;;21.55;3.70;;;;;;;3.59;87.61;101961.63;5057039;28;20033;-76
2022/01/20 05:39:42;;;;;;;28.88;4.63;;;;;;;3.69;86.70;101958.53;5073479;28;20419;-76
2022/01/20 05:42:11;;;;;;;27.92;3.53;;;;;;;3.76;85.92;101963.38;5073643;28;20098;-76
2022/01/20 05:44:50;;;;;;;22.50;3.50;;;;;;;3.64;86.74;101967.50;5073942;28;20079;-76
2022/01/20 05:47:26;;;;;;;21.52;3.20;;;;;;;3.53;87.30;101972.47;5074566;28;20495;-76
2022/01/20 05:50:15;;;;;;;20.05;2.85;;;;;;;3.57;87.61;101971.38;5074136;28;20048;-76
2022/01/20 05:52:43;;;;;;;23.13;3.50;;;;;;;3.50;87.50;101992.75;5057402;28;20049;-76
2022/01/20 05:55:14;;;;;;;25.00;3.40;;;;;;;3.52;87.64;101998.78;5073939;28;20105;-77
2022/01/20 05:57:42;;;;;;;16.52;3.22;;;;;;;3.51;88.45;102018.06;5074508;28;20041;-76
2022/01/20 06:00:13;;;;;;;17.38;2.60;;;;;;;3.34;89.06;102022.38;5073494;28;20051;-77
2022/01/20 06:05:35;;;;;;;17.20;2.90;;;;;;;3.15;86.26;102017.19;5065080;28;20114;-77
2022/01/20 06:08:04;;;;;;;16.92;2.80;;;;;;;3.30;86.80;102014.75;5065173;28;20045;-76
2022/01/20 06:10:31;;;;;;;21.13;2.83;;;;;;;3.23;86.97;102019.44;5053557;28;20124;-76
2022/01/20 06:13:07;;;;;;;15.20;2.50;;;;;;;3.25;86.08;102013.16;5061790;28;20048;-76
2022/01/20 06:15:34;;;;;;;18.20;3.75;;;;;;;3.23;85.83;102020.28;5074606;28;20041;-76
2022/01/20 06:18:01;;;;;;;23.88;3.33;;;;;;;3.19;86.38;102010.88;5074425;28;20043;-76
2022/01/20 06:20:29;;;;;;;18.70;2.88;;;;;;;3.30;86.03;102010.34;5074133;28;20055;-76
2022/01/20 06:22:56;;;;;;;14.23;3.00;;;;;;;3.18;86.66;102017.03;5073369;28;20096;-76
2022/01/20 06:25:23;;;;;;;24.08;4.43;;;;;;;3.13;86.56;102011.16;5073188;28;20044;-76
2022/01/20 06:27:50;;;;;;;18.13;2.90;;;;;;;3.23;86.14;102020.28;5074508;28;20063;-76
2022/01/20 06:30:18;;;;;;;22.13;2.70;;;;;;;3.17;85.82;102024.97;5073161;28;20044;-77
2022/01/20 06:32:44;;;;;;;18.13;2.70;;;;;;;3.15;85.25;102032.91;5074169;28;20051;-77
2022/01/20 06:35:23;;;;;;;15.05;2.35;;;;;;;3.07;85.95;102041.16;5070875;28;20045;-77
2022/01/20 06:37:50;;;;;;;21.35;3.22;;;;;;;3.07;86.32;102041.16;5073034;28;20044;-77
2022/01/20 06:40:18;;;;;;;18.48;2.22;;;;;;;3.18;86.67;102042.41;5055694;28;20054;-77
2022/01/20 06:42:46;;;;;;;17.13;3.28;;;;;;;3.32;86.33;102054.84;5040229;28;20127;-76
2022/01/20 06:45:14;;;;;;;22.08;2.95;;;;;;;3.36;86.17;102064.25;5073649;28;20119;-76
2022/01/20 06:47:43;;;;;;;28.05;3.67;;;;;;;3.37;86.57;102065.97;5072845;28;20064;-76
2022/01/20 06:50:12;;;;;;;22.40;3.80;;;;;;;3.36;87.14;102070.34;5099587;28;20416;-76
2022/01/20 06:52:43;;;;;;;17.90;3.65;;;;;;;3.40;86.98;102071.94;5049924;28;20052;-76
2022/01/20 06:55:12;;;;;;;22.88;3.20;;;;;;;3.37;86.50;102076.47;5052019;28;20049;-76
2022/01/20 06:57:40;;;;;;;24.63;3.65;;;;;;;3.35;86.36;102081.78;5052486;28;20037;-73
2022/01/20 07:00:11;;;;;;;26.48;3.55;;;;;;;3.37;85.80;102094.84;5025390;28;20486;-73
2022/01/20 07:02:37;;;;;;;19.93;2.77;;;;;;;3.28;86.32;102098.75;5053753;28;20552;-74
2022/01/20 07:05:06;;;;;;;21.83;3.20;;;;;;;3.40;85.99;102098.16;5052044;28;20287;-73
2022/01/20 07:07:33;;;;;;;24.70;3.10;;;;;;;3.38;84.64;102094.72;5053431;28;20130;-73
2022/01/20 07:10:08;;;;;;;16.73;2.72;;;;;;;3.25;83.81;102104.13;5052097;28;20090;-74
2022/01/20 07:12:47;;;;;;;19.10;3.42;;;;;;;3.31;83.54;102116.97;5063951;28;20110;-74
2022/01/20 07:15:16;;;;;;;23.35;3.28;;;;;;;3.28;83.22;102109.22;5052350;28;20041;-73
2022/01/20 07:17:45;;;;;;;20.00;3.47;;;;;;;3.28;83.04;102111.84;5052267;28;20103;-73
2022/01/20 07:20:14;;;;;;;22.38;2.60;;;;;;;3.29;82.51;102124.03;5036039;28;20139;-73
2022/01/20 07:23:01;;;;;;;17.67;2.72;;;;;;;3.30;81.50;102144.09;5060377;28;20043;-73
2022/01/20 07:25:30;;;;;;;24.88;2.83;;;;;;;3.39;81.30;102141.03;5071768;28;20036;-73
2022/01/20 07:28:02;;;;;;;;;;;;;;;3.42;80.69;102154.03;5073470;28;20041;-73
2022/01/20 07:30:32;;;;;;;25.70;4.95;;;;;;;3.33;79.92;102158.84;5054202;28;20352;-73
2022/01/20 07:33:02;;;;;;;29.45;3.00;;;;;;;3.38;81.34;102151.59;5071931;28;20059;-73
2022/01/20 07:35:32;;;;;;;24.80;2.95;;;;;;;3.37;79.35;102148.13;5051368;28;20041;-73
2022/01/20 07:37:59;;;;;;;22.38;3.20;;;;;;;3.39;78.33;102163.81;5053071;28;20037;-73
2022/01/20 07:40:29;;;;;;;18.45;2.55;;;;;;;3.51;78.48;102163.22;5052890;28;20527;-74
2022/01/20 07:42:56;;;;;;;18.38;3.00;;;;;;;3.37;77.58;102168.28;5051226;28;20433;-74
2022/01/20 07:45:33;;;;;;;25.10;3.15;;;;;;;3.39;78.18;102171.69;5051917;28;20047;-73
2022/01/20 07:48:19;;;;;;;37.00;3.13;;;;;;;3.28;78.13;102169.56;5054830;28;20040;-73
2022/01/20 07:50:50;;;;;;;19.37;2.70;;;;;;;3.34;77.60;102177.13;5055899;28;20040;-73
2022/01/20 07:53:22;;;;;;;20.98;2.78;;;;;;;3.29;75.94;102170.41;5071589;28;20072;-73
2022/01/20 07:55:50;;;;;;;16.23;2.28;;;;;;;3.17;76.18;102177.09;5072436;28;20123;-73
2022/01/20 07:58:16;;;;;;;22.95;3.50;;;;;;;3.22;77.26;102190.81;5072858;28;20048;-73
2022/01/20 08:00:44;;;;;;;24.73;3.67;;;;;;;3.17;75.67;102198.06;5071601;28;20512;-73
2022/01/20 08:03:11;;;;;;;24.63;3.30;;;;;;;3.08;76.72;102201.94;5072448;28;20041;-73
2022/01/20 08:05:56;;;;;;;22.50;2.85;;;;;;;3.11;75.90;102199.19;5051504;28;20057;-73
2022/01/20 08:08:29;;;;;;;21.95;2.95;;;;;;;3.04;76.61;102196.00;5055873;28;20045;-74
2022/01/20 08:11:19;;;;;;;24.05;2.80;;;;;;;2.99;76.92;102194.50;5024146;28;20393;-73
2022/01/20 08:13:46;;;;;;;22.90;3.00;;;;;;;2.97;77.05;102191.09;5050705;28;20437;-73
2022/01/20 08:16:13;;;;;;;21.25;2.58;;;;;;;2.97;77.64;102205.06;5052670;28;20049;-73
2022/01/20 08:18:39;;;;;;;19.92;2.47;;;;;;;3.07;77.68;102203.72;5067826;28;20041;-73
2022/01/20 08:21:06;;;;;;;28.67;3.70;;;;;;;3.14;77.71;102196.41;5031576;28;20052;-73
2022/01/20 08:23:33;;;;;;;23.88;3.00;;;;;;;3.20;77.66;102206.66;5070161;28;20076;-73
2022/01/20 08:26:02;;;;;;;24.88;3.25;;;;;;;3.20;78.33;102213.63;5054616;28;20102;-73
2022/01/20 08:28:29;;;;;;;27.30;2.78;;;;;;;3.32;78.76;102218.31;5054558;28;20577;-73
2022/01/20 08:30:56;;;;;;;25.73;3.83;;;;;;;3.43;78.36;102223.06;5049654;28;20049;-67
2022/01/20 08:33:23;;;;;;;21.38;3.53;;;;;;;3.15;79.38;102229.59;5052592;28;20045;-66
2022/01/20 08:35:58;;;;;;;20.77;3.20;;;;;;;3.31;79.82;102229.75;5062184;28;20052;-67
2022/01/20 08:38:40;;;;;;;21.58;3.15;;;;;;;3.17;79.72;102233.00;5070884;28;20039;-72
2022/01/20 08:41:07;;;;;;;32.90;3.63;;;;;;;3.03;79.53;102231.00;5051062;28;20041;-73
2022/01/20 08:43:38;;;;;;;23.63;3.38;;;;;;;3.14;78.59;102237.53;5051237;28;20041;-72
2022/01/20 08:46:08;;;;;;;22.95;3.10;;;;;;;3.14;78.91;102230.50;5071050;28;20566;-72
2022/01/20 08:48:36;;;;;;;22.55;3.20;;;;;;;3.28;78.19;102244.78;5070043;28;20036;-73
2022/01/20 08:51:23;;;;;;;27.60;3.08;;;;;;;3.36;75.91;102232.16;5059402;28;20037;-74
2022/01/20 08:53:58;;;;;;;26.02;3.83;;;;;;;3.35;74.56;102233.94;5054131;28;20053;-72
2022/01/20 08:56:28;;;;;;;23.45;3.28;;;;;;;3.28;75.21;102227.28;5073635;28;20117;-73
2022/01/20 08:58:55;;;;;;;23.15;4.05;;;;;;;3.63;73.68;102237.88;5068139;28;20037;-73
2022/01/20 09:01:22;;;;;;;24.02;2.88;;;;;;;3.64;72.01;102245.69;5064608;28;20037;-72
2022/01/20 09:03:50;;;;;;;13.38;2.35;;;;;;;3.61;71.19;102229.25;5061094;28;20047;-73
2022/01/20 09:06:17;;;;;;;18.52;2.45;;;;;;;3.77;70.37;102239.88;5053165;28;20410;-73
2022/01/20 09:08:49;;;;;;;12.95;2.25;;;;;;;3.79;70.35;102253.78;5047088;28;20048;-73
2022/01/20 09:11:19;;;;;;;19.83;2.67;;;;;;;3.71;70.21;102258.50;5050683;28;20493;-72
2022/01/20 09:16:39;;;;;;;13.90;2.40;;;;;;;3.74;70.29;102267.09;5061403;28;20044;-72
2022/01/20 09:19:11;;;;;;;18.98;2.40;;;;;;;3.89;70.52;102268.13;5075482;28;20176;-72
2022/01/20 09:21:44;;;;;;;15.50;2.20;;;;;;;3.80;70.29;102266.81;5065085;28;20171;-72
2022/01/20 09:24:11;;;;;;;18.65;2.25;;;;;;;3.88;70.34;102276.97;5054640;28;20055;-72
2022/01/20 09:26:39;;;;;;;17.92;2.45;;;;;;;3.75;67.82;102279.31;5067495;28;20067;-72
2022/01/20 09:29:05;;;;;;;13.43;2.63;;;;;;;3.78;69.26;102283.56;5041855;28;20521;-72
2022/01/20 09:31:37;;;;;;;13.10;2.65;;;;;;;3.79;68.85;102278.25;5055508;28;20045;-72
2022/01/20 09:34:06;;;;;;;14.73;2.67;;;;;;;3.81;67.67;102262.41;5053867;28;20166;-72
2022/01/20 09:36:36;;;;;;;19.13;2.50;;;;;;;3.85;68.77;102280.56;5048982;28;20049;-72
2022/01/20 09:39:03;;;;;;;17.85;2.83;;;;;;;3.84;69.81;102273.63;5054091;28;20041;-72
2022/01/20 09:41:44;;;;;;;13.30;2.70;;;;;;;3.75;70.35;102284.56;5062400;28;20082;-72
2022/01/20 09:44:11;;;;;;;21.50;2.90;;;;;;;3.70;69.27;102283.06;5058459;28;20494;-72
2022/01/20 09:46:39;;;;;;;25.60;2.75;;;;;;;3.76;69.40;102290.66;5073119;28;20090;-72
2022/01/20 09:49:14;;;;;;;17.85;2.80;;;;;;;3.93;68.84;102306.47;5056626;28;20115;-69
2022/01/20 09:51:43;;;;;;;28.85;2.65;;;;;;;3.79;68.61;102309.75;5058834;28;20532;-71
2022/01/20 09:54:13;;;;;;;12.50;2.30;;;;;;;4.02;68.97;102326.16;5057019;28;20987;-71
2022/01/20 09:56:47;;;;;;;15.25;2.63;;;;;;;4.01;68.97;102309.56;5062392;28;20044;-67
2022/01/20 09:59:17;;;;;;;21.70;3.15;;;;;;;4.08;68.42;102318.03;5067373;28;20037;-70
2022/01/20 10:01:47;;;;;;;18.48;2.58;;;;;;;4.19;67.62;102310.47;5057968;28;20036;-71
2022/01/20 10:04:22;;;;;;;17.35;2.25;;;;;;;3.91;68.37;102324.09;5052486;28;20124;-71
2022/01/20 10:07:01;;;;;;;25.77;3.20;;;;;;;4.13;69.63;102321.28;5045842;28;20102;-71
2022/01/20 10:09:36;;;;;;;21.20;2.50;;;;;;;4.15;68.25;102327.31;5064983;28;20094;-70
2022/01/20 10:12:16;;;;;;;15.75;2.40;;;;;;;4.07;68.21;102328.59;5063319;28;20055;-71
2022/01/20 10:15:07;;;;;;;18.25;2.95;;;;;;;4.16;68.07;102326.38;5051894;28;20041;-71
2022/01/20 10:18:05;;;;;;;14.98;2.28;;;;;;;4.20;69.32;102335.81;5046006;28;20037;-71
2022/01/20 10:20:32;;;;;;;19.75;2.60;;;;;;;4.38;69.58;102335.84;5055805;28;20049;-71
2022/01/20 10:23:13;;;;;;;21.45;3.05;;;;;;;4.21;68.63;102334.03;5053570;28;20049;-71
2022/01/20 10:26:03;;;;;;;14.57;2.50;;;;;;;4.53;68.22;102334.22;5088688;27;20137;-71
2022/01/20 10:28:45;;;;;;;28.23;2.60;;;;;;;4.37;68.59;102334.16;5072760;28;20492;-70
2022/01/20 10:31:19;;;;;;;20.10;2.50;;;;;;;4.33;69.53;102343.09;5046599;28;20556;-70
2022/01/20 10:33:47;;;;;;;18.77;2.63;;;;;;;4.21;68.70;102347.19;5050646;28;20503;-71
2022/01/20 10:36:14;;;;;;;18.55;1.92;;;;;;;4.28;68.94;102345.97;5050118;28;20051;-71
2022/01/20 10:38:54;;;;;;;19.75;3.05;;;;;;;4.13;67.43;102355.44;5064887;28;20059;-71
2022/01/20 10:41:38;;;;;;;19.98;3.05;;;;;;;4.18;68.58;102363.06;5047687;28;20033;-71
2022/01/20 10:44:11;;;;;;;17.73;2.97;;;;;;;4.27;67.78;102364.41;5070641;28;20040;-70
2022/01/20 10:46:52;;;;;;;12.98;2.50;;;;;;;4.05;67.95;102375.94;5079245;28;20044;-71
2022/01/20 10:49:30;;;;;;;20.52;2.67;;;;;;;4.02;69.02;102373.44;5058269;28;20076;-70
2022/01/20 10:52:03;;;;;;;15.85;2.25;;;;;;;3.82;68.98;102375.25;5069516;28;20468;-70
2022/01/20 10:54:44;;;;;;;23.58;2.53;;;;;;;4.03;68.97;102381.25;5071281;28;20508;-70
2022/01/20 10:57:24;;;;;;;13.98;2.28;;;;;;;3.99;68.86;102370.97;5065209;28;20055;-70
2022/01/20 11:00:04;;;;;;;17.10;2.53;;;;;;;4.17;68.73;102367.50;5072456;28;20098;-70
2022/01/20 11:02:42;;;;;;;19.73;2.58;;;;;;;3.94;68.71;102375.59;5066684;28;20461;-70
2022/01/20 11:05:11;;;;;;;15.57;2.20;;;;;;;4.00;68.74;102383.16;5060506;28;20037;-69
2022/01/20 11:07:40;;;;;;;16.00;2.33;;;;;;;3.99;69.80;102373.59;5070161;28;20401;-70
2022/01/20 11:10:09;;;;;;;16.48;2.20;;;;;;;3.93;68.52;102361.63;5074848;28;20130;-70
2022/01/20 11:12:56;;;;;;;28.30;3.45;;;;;;;4.01;68.61;102364.72;5089403;28;20493;-69
2022/01/20 11:15:29;;;;;;;19.17;3.40;;;;;;;3.96;68.62;102361.44;5094084;28;20039;-70
2022/01/20 11:17:58;;;;;;;18.48;2.90;;;;;;;3.89;67.80;102359.19;5082295;28;20485;-69
2022/01/20 11:20:30;;;;;;;18.75;2.35;;;;;;;4.07;68.66;102358.31;5087189;28;20127;-69
2022/01/20 11:23:02;;;;;;;21.45;3.05;;;;;;;3.90;68.28;102358.28;5092788;28;20059;-69
2022/01/20 11:25:35;;;;;;;21.42;2.97;;;;;;;4.09;69.44;102348.59;5089428;28;20054;-72
2022/01/20 11:28:17;;;;;;;18.73;3.00;;;;;;;4.13;68.95;102354.56;5091749;28;20039;-72
2022/01/20 11:31:07;;;;;;;20.45;3.75;;;;;;;4.34;69.34;102347.44;5082431;28;20441;-72
2022/01/20 11:33:42;;;;;;;19.88;3.13;;;;;;;4.67;68.24;102344.91;5070035;28;20064;-72
2022/01/20 11:36:26;;;;;;;21.23;3.60;;;;;;;6.73;62.41;102340.84;5076704;28;20520;-71
2022/01/20 11:39:07;;;;;;;21.00;3.22;;;;;;;8.89;55.72;102337.91;5071920;28;20178;-72
2022/01/20 11:41:43;;;;;;;16.83;3.05;;;;;;;9.82;51.05;102349.06;5069773;28;20036;-72
2022/01/20 11:44:18;;;;;;;15.10;3.03;;;;;;;11.00;48.82;102336.00;5064224;28;20090;-72
2022/01/20 11:46:47;;;;;;;19.35;3.67;;;;;;;11.30;47.28;102327.50;5037119;28;20146;-72
2022/01/20 11:49:16;;;;;;;18.67;3.15;;;;;;;9.25;51.77;102339.00;5072475;28;20090;-72
2022/01/20 11:57:25;;;;;;;13.27;3.42;;;;;;;7.75;57.45;102353.22;5099511;27;20965;-70
2022/01/20 11:59:56;;;;;;;20.48;3.63;;;;;;;8.17;56.58;102344.34;5078476;28;20113;-70
2022/01/20 12:02:34;;;;;;;20.38;3.03;;;;;;;8.54;55.15;102349.91;5099170;28;20047;-71
2022/01/20 12:05:28;;;;;;;18.23;3.38;;;;;;;7.02;59.36;102335.66;5088205;28;20032;-70
2022/01/20 12:08:18;;;;;;;23.88;3.08;;;;;;;8.24;57.18;102328.94;5074435;28;20068;-70
2022/01/20 12:11:05;;;;;;;19.73;3.63;;;;;;;6.53;60.79;102340.25;5076960;28;20059;-71
2022/01/20 12:13:44;;;;;;;27.95;3.50;;;;;;;6.00;64.61;102325.69;5057758;28;20404;-70
2022/01/20 12:16:18;;;;;;;21.60;3.00;;;;;;;5.66;63.99;102327.53;5065383;28;20392;-69
2022/01/20 12:18:54;;;;;;;26.38;3.70;;;;;;;5.45;65.24;102323.41;5083613;28;20116;-69
2022/01/20 12:21:22;;;;;;;24.00;3.47;;;;;;;5.38;66.38;102321.13;5051322;28;20064;-68
2022/01/20 12:23:52;;;;;;;22.13;3.35;;;;;;;5.73;63.78;102309.59;5083531;28;20071;-68
2022/01/20 12:26:20;;;;;;;20.05;2.85;;;;;;;5.90;64.29;102308.69;5088790;28;20042;-68
2022/01/20 12:33:14;;;;;;;23.50;3.40;;;;;;;5.83;63.86;102309.94;5075812;28;20048;-68
2022/01/20 12:35:45;;;;;;;18.80;2.92;;;;;;;5.75;63.25;102318.28;5069545;28;20369;-68
2022/01/20 12:38:23;;;;;;;28.63;3.10;;;;;;;5.54;62.91;102329.03;5081402;28;20044;-69
2022/01/20 12:41:12;;;;;;;22.83;2.78;;;;;;;5.60;64.92;102327.00;5050054;28;20504;-68
2022/01/20 12:43:43;;;;;;;20.98;2.92;;;;;;;6.06;62.51;102312.19;5061228;28;20041;-68
2022/01/20 12:46:14;;;;;;;23.35;3.05;;;;;;;6.02;62.79;102315.94;5054261;28;20044;-69
2022/01/20 12:49:17;;;;;;;17.58;2.83;;;;;;;5.71;62.83;102314.97;5068424;28;20488;-69
2022/01/20 12:51:50;;;;;;;29.20;2.90;;;;;;;5.52;64.10;102303.72;5091749;28;20131;-69
2022/01/20 12:54:26;;;;;;;16.85;2.70;;;;;;;5.26;62.57;102297.25;5072237;28;20047;-69